Time;durP1;ratioP1;P1;durP2;ratioP2;P2;SDS_P1;SDS_P2;PMS_P1;PMS_P2;Temp;Humidity;BMP_temperature;BMP_pressure;BME280_temperature;BME280_humidity;BME280_pressure;Samples;Min_cycle;Max_cycle;Signal;HPM_P1;HPM_P2
2023/12/23 00:01:25;;;;;;;1.40;0.40;;;13.40;44.20;;;;;;7402739;19;19914;-72
2023/12/23 00:03:50;;;;;;;1.50;0.40;;;13.40;43.90;;;;;;7400831;19;19925;-72
2023/12/23 00:06:17;;;;;;;2.58;0.40;;;13.40;43.90;;;;;;7401363;19;19915;-72
2023/12/23 00:08:42;;;;;;;0.93;0.40;;;13.40;43.70;;;;;;7400076;19;19937;-72
2023/12/23 00:11:08;;;;;;;1.33;0.40;;;13.40;43.40;;;;;;7401029;19;19919;-71
2023/12/23 00:13:34;;;;;;;1.08;0.30;;;13.30;43.70;;;;;;7400998;19;19927;-71
2023/12/23 00:16:00;;;;;;;0.80;0.25;;;13.30;44.30;;;;;;7403783;19;19926;-72
2023/12/23 00:18:26;;;;;;;0.77;0.28;;;13.30;44.30;;;;;;7402024;19;19918;-72
2023/12/23 00:20:53;;;;;;;1.02;0.30;;;13.20;44.60;;;;;;7401159;19;19952;-71
2023/12/23 00:23:18;;;;;;;;;;;13.10;45.20;;;;;;7405300;19;19978;-72
2023/12/23 00:25:44;;;;;;;0.73;0.40;;;13.20;45.00;;;;;;7402292;19;19926;-72
2023/12/23 00:28:10;;;;;;;1.02;0.30;;;13.10;45.20;;;;;;7399501;19;19940;-72
2023/12/23 00:30:36;;;;;;;1.15;0.40;;;13.10;45.40;;;;;;7402771;19;19922;-72
2023/12/23 00:33:05;;;;;;;1.02;0.40;;;13.00;45.70;;;;;;7401163;19;20354;-72
2023/12/23 00:35:30;;;;;;;1.33;0.32;;;13.10;45.60;;;;;;7403851;19;20342;-72
2023/12/23 00:37:56;;;;;;;0.80;0.32;;;13.20;44.50;;;;;;7400101;19;19919;-72
2023/12/23 00:40:22;;;;;;;1.00;0.30;;;13.10;44.60;;;;;;7401658;19;19943;-72
2023/12/23 00:42:47;;;;;;;1.42;0.30;;;13.10;44.70;;;;;;7401114;19;19922;-72
2023/12/23 00:45:13;;;;;;;1.45;0.40;;;13.10;45.30;;;;;;7401016;19;19935;-72
2023/12/23 00:47:39;;;;;;;1.35;0.40;;;13.00;46.10;;;;;;7400777;19;19918;-71
2023/12/23 00:50:06;;;;;;;0.90;0.32;;;12.90;46.90;;;;;;7401285;19;20404;-72
2023/12/23 00:52:32;;;;;;;1.70;0.52;;;12.90;47.20;;;;;;7401884;19;19919;-72
2023/12/23 00:54:58;;;;;;;1.60;0.63;;;12.80;48.50;;;;;;7400613;19;19930;-72
2023/12/23 00:57:23;;;;;;;0.98;0.30;;;12.60;49.20;;;;;;7401679;19;19934;-72
2023/12/23 00:59:49;;;;;;;1.80;0.45;;;12.60;49.90;;;;;;7402564;19;19941;-71
2023/12/23 01:02:15;;;;;;;1.80;0.52;;;12.50;51.00;;;;;;7400190;19;19911;-72
2023/12/23 01:04:41;;;;;;;1.48;0.40;;;12.50;50.90;;;;;;7402588;19;19955;-71
2023/12/23 01:07:07;;;;;;;1.75;0.52;;;12.40;51.10;;;;;;7399755;19;20361;-72
2023/12/23 01:09:32;;;;;;;1.58;0.52;;;12.50;50.80;;;;;;7401921;19;19915;-72
2023/12/23 01:11:58;;;;;;;1.45;0.45;;;12.50;51.10;;;;;;7402021;19;19915;-71
2023/12/23 01:14:24;;;;;;;1.75;0.40;;;12.60;50.00;;;;;;7401031;19;19922;-72
2023/12/23 01:16:50;;;;;;;1.48;0.50;;;12.60;49.80;;;;;;7401920;19;19918;-73
2023/12/23 01:19:15;;;;;;;2.85;0.40;;;12.60;48.60;;;;;;7400287;19;20381;-71
2023/12/23 01:21:41;;;;;;;0.77;0.30;;;12.80;47.40;;;;;;7400917;19;19910;-72
2023/12/23 01:24:07;;;;;;;1.27;0.40;;;12.80;46.10;;;;;;7399595;19;19922;-72
2023/12/23 01:26:33;;;;;;;0.60;0.30;;;12.90;45.50;;;;;;7400748;19;19910;-71
2023/12/23 01:29:00;;;;;;;2.50;0.32;;;12.90;45.40;;;;;;7401517;19;20254;-73
2023/12/23 01:31:27;;;;;;;0.65;0.20;;;12.90;45.90;;;;;;7397468;19;19931;-72
2023/12/23 01:33:53;;;;;;;1.88;0.43;;;12.80;46.20;;;;;;7401171;19;19922;-72
2023/12/23 01:36:18;;;;;;;0.98;0.40;;;12.70;46.60;;;;;;7377481;19;20358;-72
2023/12/23 01:38:44;;;;;;;1.75;0.40;;;12.70;47.70;;;;;;7397430;19;20408;-72
2023/12/23 01:41:10;;;;;;;0.60;0.32;;;12.60;48.00;;;;;;7396387;19;19915;-72
2023/12/23 01:43:36;;;;;;;0.95;0.32;;;12.60;48.30;;;;;;7399389;19;19954;-71
2023/12/23 01:46:02;;;;;;;1.50;0.40;;;12.60;48.00;;;;;;7399041;19;20339;-71
2023/12/23 01:48:31;;;;;;;0.60;0.20;;;12.60;47.80;;;;;;7400853;19;19915;-71
2023/12/23 01:50:57;;;;;;;0.60;0.25;;;12.60;48.00;;;;;;7398819;19;19937;-72
2023/12/23 01:53:25;;;;;;;1.80;0.40;;;12.50;48.30;;;;;;7399026;19;19930;-72
2023/12/23 01:55:52;;;;;;;1.05;0.30;;;12.40;49.10;;;;;;7400878;19;19915;-71
2023/12/23 01:58:18;;;;;;;0.82;0.30;;;12.50;48.50;;;;;;7401039;19;19918;-72
2023/12/23 02:00:44;;;;;;;1.08;0.43;;;12.50;48.30;;;;;;7395594;19;20291;-72
2023/12/23 02:03:10;;;;;;;0.30;0.10;;;12.50;48.70;;;;;;7399463;19;19914;-72
2023/12/23 02:05:35;;;;;;;0.80;0.25;;;12.50;48.30;;;;;;7401894;19;19973;-71
2023/12/23 02:08:01;;;;;;;1.48;0.30;;;12.60;48.50;;;;;;7395812;19;19923;-71
2023/12/23 02:10:27;;;;;;;1.05;0.28;;;12.60;48.60;;;;;;7399637;19;19922;-71
2023/12/23 02:13:19;;;;;;;1.13;0.30;;;12.60;49.10;;;;;;7400267;19;19925;-71
2023/12/23 02:15:47;;;;;;;0.82;0.20;;;12.50;49.60;;;;;;7400288;19;19918;-71
2023/12/23 02:18:13;;;;;;;1.40;0.20;;;12.50;50.10;;;;;;7397656;19;19945;-72
2023/12/23 02:20:39;;;;;;;0.50;0.20;;;12.50;50.60;;;;;;7400880;19;19910;-71
2023/12/23 02:23:04;;;;;;;0.85;0.38;;;12.60;48.90;;;;;;7398492;19;19919;-72
2023/12/23 02:25:30;;;;;;;0.75;0.20;;;12.60;49.60;;;;;;7399738;19;19914;-72
2023/12/23 02:28:01;;;;;;;0.95;0.17;;;12.50;49.60;;;;;;7400435;19;19911;-71
2023/12/23 02:30:28;;;;;;;0.88;0.20;;;12.40;50.60;;;;;;7398634;19;19986;-71
2023/12/23 02:32:54;;;;;;;0.93;0.28;;;12.40;50.20;;;;;;7399331;19;19919;-72
2023/12/23 02:35:26;;;;;;;1.55;0.70;;;12.40;50.90;;;;;;7395930;19;19913;-71
2023/12/23 02:37:52;;;;;;;0.60;0.30;;;12.40;51.20;;;;;;7396941;19;20342;-71
2023/12/23 02:40:18;;;;;;;0.68;0.30;;;12.30;52.20;;;;;;7396892;19;19982;-71
2023/12/23 02:42:44;;;;;;;1.42;0.50;;;12.20;53.10;;;;;;7399930;19;19922;-72
2023/12/23 02:45:09;;;;;;;1.92;0.43;;;12.10;54.00;;;;;;7396373;19;19924;-70
2023/12/23 02:47:35;;;;;;;0.93;0.30;;;12.00;54.90;;;;;;7398116;19;19974;-72
2023/12/23 02:50:01;;;;;;;1.33;0.50;;;12.00;55.10;;;;;;7397890;19;20014;-72
2023/12/23 02:52:27;;;;;;;1.13;0.30;;;12.00;54.20;;;;;;7396678;19;20322;-72
2023/12/23 02:54:53;;;;;;;1.58;0.50;;;12.00;55.00;;;;;;7397483;19;19947;-71
2023/12/23 02:57:19;;;;;;;1.15;0.32;;;12.00;54.50;;;;;;7397493;19;19923;-71
2023/12/23 02:59:44;;;;;;;1.92;0.30;;;11.90;55.60;;;;;;7399346;19;20572;-72
2023/12/23 03:02:10;;;;;;;1.33;0.47;;;11.90;56.20;;;;;;7396127;19;19926;-71
2023/12/23 03:04:36;;;;;;;1.42;0.38;;;11.80;56.70;;;;;;7399313;19;19922;-72
2023/12/23 03:07:02;;;;;;;1.58;0.38;;;11.70;57.00;;;;;;7395072;19;19921;-71
2023/12/23 03:09:27;;;;;;;0.95;0.35;;;11.80;57.40;;;;;;7396049;19;19949;-71
2023/12/23 03:11:53;;;;;;;1.38;0.40;;;11.80;57.20;;;;;;7398138;19;19974;-72
2023/12/23 03:14:19;;;;;;;1.20;0.40;;;11.80;57.50;;;;;;7396315;19;19914;-71
2023/12/23 03:16:45;;;;;;;1.33;0.38;;;11.80;56.60;;;;;;7400851;19;19922;-72
2023/12/23 03:19:10;;;;;;;1.60;0.40;;;11.80;56.90;;;;;;7398397;19;19918;-71
2023/12/23 03:21:43;;;;;;;2.08;0.90;;;11.80;56.40;;;;;;7403771;19;19923;-72
2023/12/23 03:24:09;;;;;;;1.10;0.40;;;11.70;57.40;;;;;;7403121;19;19921;-72
2023/12/23 03:26:35;;;;;;;0.88;0.32;;;11.70;57.20;;;;;;7404832;19;19923;-72
2023/12/23 03:29:00;;;;;;;1.52;0.50;;;11.70;57.60;;;;;;7402531;19;19922;-72
2023/12/23 03:31:26;;;;;;;1.98;0.47;;;11.70;57.50;;;;;;7403333;19;19933;-71
2023/12/23 03:33:52;;;;;;;2.25;0.47;;;11.70;57.40;;;;;;7404782;19;19918;-71
2023/12/23 03:36:18;;;;;;;1.67;0.90;;;11.60;58.20;;;;;;7405284;19;19922;-71
2023/12/23 03:38:43;;;;;;;2.20;0.32;;;11.60;57.70;;;;;;7405617;19;19921;-73
2023/12/23 03:41:12;;;;;;;1.15;0.38;;;11.70;56.40;;;;;;7403911;19;20437;-71
2023/12/23 03:43:38;;;;;;;1.40;0.40;;;11.70;56.60;;;;;;7404575;19;19922;-72
2023/12/23 03:46:04;;;;;;;0.68;0.20;;;11.70;56.10;;;;;;7402466;19;19948;-71
2023/12/23 03:48:30;;;;;;;2.15;0.40;;;11.70;55.20;;;;;;7405031;19;19931;-72
2023/12/23 03:50:56;;;;;;;0.80;0.30;;;11.80;54.50;;;;;;7404469;19;19918;-72
2023/12/23 03:53:21;;;;;;;1.75;0.75;;;11.80;54.90;;;;;;7401658;19;20602;-73
2023/12/23 03:55:48;;;;;;;1.70;0.30;;;11.70;54.30;;;;;;7404175;19;19941;-72
2023/12/23 03:58:14;;;;;;;2.35;0.40;;;11.80;53.00;;;;;;7403050;19;20353;-71
2023/12/23 04:00:40;;;;;;;1.08;0.40;;;11.90;52.00;;;;;;7402837;19;19970;-72
2023/12/23 04:03:05;;;;;;;1.80;0.40;;;11.80;52.70;;;;;;7402260;19;19911;-72
2023/12/23 04:05:31;;;;;;;1.20;0.40;;;11.80;52.80;;;;;;7403455;19;19945;-72
2023/12/23 04:07:57;;;;;;;1.58;0.40;;;11.90;52.00;;;;;;7403218;19;19924;-72
2023/12/23 04:10:22;;;;;;;1.20;0.30;;;11.90;52.50;;;;;;7400180;19;19923;-72
2023/12/23 04:12:48;;;;;;;1.30;0.38;;;11.80;54.20;;;;;;7380643;19;19919;-72
2023/12/23 04:15:14;;;;;;;1.00;0.40;;;11.60;55.80;;;;;;7402279;19;19945;-74
2023/12/23 04:17:40;;;;;;;1.13;0.35;;;11.50;57.30;;;;;;7401685;19;19929;-71
2023/12/23 04:20:07;;;;;;;1.55;0.40;;;11.50;57.70;;;;;;7402325;19;19918;-71
2023/12/23 04:22:32;;;;;;;2.30;0.40;;;11.50;57.90;;;;;;7402102;19;19915;-72
2023/12/23 04:24:58;;;;;;;1.75;0.45;;;11.40;58.40;;;;;;7402731;19;19926;-72
2023/12/23 04:27:24;;;;;;;1.92;0.52;;;11.40;59.00;;;;;;7400891;19;19953;-72
2023/12/23 04:29:50;;;;;;;0.45;0.30;;;11.40;58.60;;;;;;7402187;19;19926;-72
2023/12/23 04:32:16;;;;;;;1.10;0.30;;;11.40;57.90;;;;;;7401748;19;19923;-71
2023/12/23 04:34:42;;;;;;;1.90;0.57;;;11.40;57.80;;;;;;7404154;19;19926;-72
2023/12/23 04:37:08;;;;;;;1.00;0.38;;;11.30;58.70;;;;;;7402812;19;19940;-72
2023/12/23 04:39:33;;;;;;;1.80;0.70;;;11.30;59.10;;;;;;7401576;19;19926;-72
2023/12/23 04:41:59;;;;;;;1.92;0.32;;;11.30;60.10;;;;;;7401713;19;20006;-72
2023/12/23 04:44:27;;;;;;;1.48;0.45;;;11.20;60.60;;;;;;7402025;19;19918;-71
2023/12/23 04:46:53;;;;;;;2.13;0.50;;;11.10;61.00;;;;;;7402289;19;19949;-72
2023/12/23 04:49:19;;;;;;;1.08;0.20;;;11.00;61.50;;;;;;7399820;19;19931;-72
2023/12/23 04:51:45;;;;;;;0.90;0.30;;;11.10;61.50;;;;;;7403263;19;19918;-71
2023/12/23 04:54:13;;;;;;;1.50;0.50;;;11.10;61.50;;;;;;7398203;19;19914;-72
2023/12/23 04:56:40;;;;;;;2.25;0.50;;;11.00;62.00;;;;;;7402631;19;19918;-72
2023/12/23 04:59:06;;;;;;;1.63;0.47;;;11.00;62.30;;;;;;7399029;19;19919;-72
2023/12/23 05:01:32;;;;;;;2.40;0.45;;;10.90;63.10;;;;;;7401877;19;19911;-72
2023/12/23 05:03:58;;;;;;;0.85;0.30;;;10.80;63.40;;;;;;7400232;19;19926;-72
2023/12/23 05:06:24;;;;;;;1.67;0.40;;;10.80;64.00;;;;;;7399019;19;19926;-73
2023/12/23 05:08:49;;;;;;;0.90;0.30;;;10.80;63.70;;;;;;7402052;19;19924;-72
2023/12/23 05:11:15;;;;;;;1.85;0.47;;;10.80;64.60;;;;;;7400805;19;19946;-71
2023/12/23 05:13:41;;;;;;;1.75;0.75;;;10.70;65.10;;;;;;7399623;19;20280;-72
2023/12/23 05:16:07;;;;;;;2.00;0.70;;;10.70;64.90;;;;;;7398647;19;19918;-72
2023/12/23 05:18:33;;;;;;;1.55;0.55;;;10.70;64.70;;;;;;7401491;19;19911;-73
2023/12/23 05:20:58;;;;;;;3.85;0.70;;;10.70;65.30;;;;;;7400162;19;19914;-71
2023/12/23 05:23:24;;;;;;;1.63;0.85;;;10.70;64.80;;;;;;7400299;19;20235;-72
2023/12/23 05:25:54;;;;;;;3.60;0.77;;;10.70;64.80;;;;;;7403155;19;19923;-72
2023/12/23 05:28:21;;;;;;;2.85;0.63;;;10.60;65.50;;;;;;7400766;19;19925;-71
2023/12/23 05:30:47;;;;;;;2.45;0.75;;;10.60;66.10;;;;;;7402860;19;19926;-72
2023/12/23 05:33:12;;;;;;;1.90;0.50;;;10.60;66.20;;;;;;7396831;19;19953;-72
2023/12/23 05:35:38;;;;;;;1.58;0.40;;;10.60;66.40;;;;;;7401675;19;19915;-72
2023/12/23 05:38:04;;;;;;;0.47;0.20;;;10.50;67.60;;;;;;7399076;19;19927;-73
2023/12/23 05:40:30;;;;;;;1.83;0.40;;;10.50;67.70;;;;;;7399640;19;19922;-71
2023/12/23 05:42:55;;;;;;;1.63;0.50;;;10.40;68.00;;;;;;7400138;19;19939;-72
2023/12/23 05:45:21;;;;;;;2.03;0.47;;;10.40;68.40;;;;;;7401376;19;19914;-72
2023/12/23 05:47:50;;;;;;;2.17;0.45;;;10.30;68.60;;;;;;7402913;19;19929;-70
2023/12/23 05:50:16;;;;;;;1.38;0.32;;;10.30;68.70;;;;;;7397919;19;19923;-72
2023/12/23 05:52:44;;;;;;;1.85;0.60;;;10.40;68.40;;;;;;7399354;19;20001;-72
2023/12/23 05:55:09;;;;;;;2.25;0.52;;;10.40;68.10;;;;;;7400163;19;19914;-72
2023/12/23 05:57:35;;;;;;;1.92;0.57;;;10.40;67.90;;;;;;7401946;19;19988;-72
2023/12/23 06:00:03;;;;;;;2.00;0.65;;;10.40;67.50;;;;;;7401114;19;19945;-72
2023/12/23 06:02:29;;;;;;;2.80;0.98;;;10.40;68.20;;;;;;7400768;19;20546;-72
2023/12/23 06:04:55;;;;;;;1.70;0.57;;;10.30;69.00;;;;;;7398695;19;19922;-71
2023/12/23 06:07:21;;;;;;;2.75;0.70;;;10.30;69.00;;;;;;7400404;19;19936;-73
2023/12/23 06:09:46;;;;;;;1.60;0.75;;;10.40;68.20;;;;;;7401366;19;19919;-72
2023/12/23 06:12:12;;;;;;;2.67;0.95;;;10.50;66.30;;;;;;7399760;19;20255;-71
2023/12/23 06:14:39;;;;;;;1.85;0.60;;;10.50;66.30;;;;;;7398058;19;19973;-72
2023/12/23 06:17:05;;;;;;;1.90;0.82;;;10.50;67.40;;;;;;7397824;19;19938;-72
2023/12/23 06:19:30;;;;;;;2.38;0.80;;;10.40;67.60;;;;;;7398572;19;19926;-71
2023/12/23 06:21:56;;;;;;;2.75;0.77;;;10.40;68.30;;;;;;7399558;19;19915;-72
2023/12/23 06:24:22;;;;;;;1.83;0.70;;;10.30;69.20;;;;;;7401028;19;19931;-71
2023/12/23 06:26:48;;;;;;;1.60;0.52;;;10.20;70.60;;;;;;7400245;19;19929;-71
2023/12/23 06:29:13;;;;;;;2.40;0.77;;;10.20;71.00;;;;;;7400386;19;19914;-71
2023/12/23 06:31:40;;;;;;;1.73;0.50;;;10.10;71.80;;;;;;7398713;19;19915;-72
2023/12/23 06:34:06;;;;;;;2.05;0.60;;;10.10;72.20;;;;;;7398307;19;19914;-71
2023/12/23 06:36:31;;;;;;;3.17;1.00;;;10.00;71.90;;;;;;7400361;19;19914;-71
2023/12/23 06:38:57;;;;;;;2.47;0.88;;;10.00;72.10;;;;;;7398910;19;19918;-72
2023/12/23 06:41:23;;;;;;;2.75;0.60;;;10.00;71.90;;;;;;7397188;19;19926;-72
2023/12/23 06:43:49;;;;;;;1.65;0.50;;;10.00;71.90;;;;;;7398810;19;19935;-72
2023/12/23 06:46:14;;;;;;;2.88;0.63;;;10.00;71.80;;;;;;7396105;19;19918;-71
2023/12/23 06:48:40;;;;;;;2.83;0.57;;;10.10;71.00;;;;;;7400125;19;19914;-72
2023/12/23 06:51:06;;;;;;;1.80;0.70;;;10.10;70.80;;;;;;7397360;19;19994;-72
2023/12/23 06:53:32;;;;;;;1.25;0.50;;;10.10;70.50;;;;;;7399696;19;19914;-72
2023/12/23 06:55:58;;;;;;;1.23;0.43;;;10.10;70.30;;;;;;7407151;19;19922;-72
2023/12/23 06:58:27;;;;;;;1.80;0.68;;;10.10;71.10;;;;;;7403471;19;19918;-73
2023/12/23 07:00:53;;;;;;;2.70;1.00;;;10.00;72.10;;;;;;7405355;19;19974;-73
2023/12/23 07:03:20;;;;;;;2.78;0.70;;;9.90;72.60;;;;;;7385886;19;19956;-71
2023/12/23 07:05:46;;;;;;;3.55;1.10;;;10.00;72.50;;;;;;7406953;19;19921;-72
2023/12/23 07:08:13;;;;;;;3.00;0.90;;;9.90;72.70;;;;;;7406030;19;19921;-72
2023/12/23 07:10:39;;;;;;;2.45;0.85;;;9.90;72.70;;;;;;7406946;19;19922;-72
2023/12/23 07:13:05;;;;;;;2.13;0.80;;;9.90;72.80;;;;;;7404669;19;20936;-72
2023/12/23 07:15:31;;;;;;;2.55;0.88;;;9.90;72.50;;;;;;7406273;19;19915;-71
2023/12/23 07:17:56;;;;;;;2.63;0.98;;;9.90;72.50;;;;;;7406968;19;19952;-71
2023/12/23 07:20:22;;;;;;;2.88;1.33;;;9.80;72.90;;;;;;7405384;19;20488;-71
2023/12/23 07:22:48;;;;;;;3.20;1.08;;;9.80;72.80;;;;;;7405471;19;19919;-73
2023/12/23 07:25:14;;;;;;;3.58;0.73;;;9.80;73.00;;;;;;7403832;19;20350;-72
2023/12/23 07:27:39;;;;;;;1.45;0.52;;;9.80;72.70;;;;;;7407667;19;19911;-72
2023/12/23 07:30:06;;;;;;;4.47;0.90;;;9.80;72.60;;;;;;7383583;19;20457;-73
2023/12/23 07:32:32;;;;;;;2.78;0.82;;;9.80;72.80;;;;;;7402823;19;19989;-74
2023/12/23 07:34:57;;;;;;;4.60;1.10;;;9.80;72.50;;;;;;7407156;19;19935;-72
2023/12/23 07:37:23;;;;;;;3.90;1.20;;;9.90;72.40;;;;;;7401324;19;20361;-71
2023/12/23 07:39:49;;;;;;;4.25;0.85;;;9.90;71.70;;;;;;7407331;19;20365;-72
2023/12/23 07:42:15;;;;;;;2.90;1.00;;;9.90;71.50;;;;;;7398709;19;19919;-72
2023/12/23 07:44:40;;;;;;;2.05;0.90;;;9.90;71.70;;;;;;7405005;19;20461;-72
2023/12/23 07:47:09;;;;;;;3.55;0.82;;;10.00;71.50;;;;;;7381245;19;19919;-72
2023/12/23 07:49:36;;;;;;;2.85;0.93;;;10.00;71.00;;;;;;7405581;19;20528;-72
2023/12/23 07:52:02;;;;;;;2.83;0.88;;;10.00;71.00;;;;;;7403324;19;20450;-72
2023/12/23 07:54:28;;;;;;;3.60;0.70;;;10.00;70.60;;;;;;7402912;19;19945;-72
2023/12/23 07:56:54;;;;;;;3.60;1.00;;;10.00;70.80;;;;;;7400277;19;19910;-72
2023/12/23 07:59:19;;;;;;;3.20;1.20;;;10.00;70.70;;;;;;7402703;19;20267;-73
2023/12/23 08:01:45;;;;;;;2.10;0.77;;;10.00;70.30;;;;;;7404654;19;19914;-72
2023/12/23 08:04:13;;;;;;;3.10;1.02;;;10.00;70.00;;;;;;7401955;19;19925;-72
2023/12/23 08:06:39;;;;;;;2.58;0.88;;;10.10;70.00;;;;;;7402527;19;19923;-72
2023/12/23 08:09:06;;;;;;;5.57;0.90;;;10.10;69.40;;;;;;7402039;19;19918;-71
2023/12/23 08:11:31;;;;;;;2.60;1.00;;;10.20;69.30;;;;;;7406047;19;20273;-72
2023/12/23 08:13:58;;;;;;;3.53;1.30;;;10.30;68.30;;;;;;7407556;19;19946;-72
2023/12/23 08:16:24;;;;;;;4.45;1.20;;;11.50;64.60;;;;;;7405866;19;19918;-73
2023/12/23 08:18:50;;;;;;;3.03;1.30;;;12.70;54.90;;;;;;7408120;19;19922;-73
2023/12/23 08:21:15;;;;;;;4.32;1.73;;;12.90;51.00;;;;;;7402304;19;19966;-72
2023/12/23 08:23:43;;;;;;;4.38;1.52;;;13.10;50.50;;;;;;7405508;19;19928;-73
2023/12/23 08:26:09;;;;;;;4.72;1.30;;;13.50;46.20;;;;;;7402098;19;19926;-72
2023/12/23 08:28:36;;;;;;;4.07;1.42;;;13.60;45.10;;;;;;7407671;19;19923;-73
2023/12/23 08:31:02;;;;;;;3.22;1.10;;;13.60;43.10;;;;;;7382286;19;19914;-72
2023/12/23 08:33:29;;;;;;;5.22;1.25;;;13.90;42.70;;;;;;7400757;19;20256;-74
2023/12/23 08:35:56;;;;;;;4.97;1.02;;;13.70;44.80;;;;;;7404570;19;20346;-72
2023/12/23 08:38:22;;;;;;;3.70;1.00;;;14.60;41.30;;;;;;7400736;19;19934;-72
2023/12/23 08:40:48;;;;;;;5.20;1.20;;;15.00;36.80;;;;;;7403130;19;19914;-74
2023/12/23 08:43:15;;;;;;;4.00;1.17;;;15.00;37.60;;;;;;7401127;19;19921;-72
2023/12/23 08:45:40;;;;;;;;;;;14.10;39.60;;;;;;7384071;19;20080;-73
2023/12/23 08:48:07;;;;;;;3.40;0.90;;;14.40;39.20;;;;;;7400163;19;20311;-72
2023/12/23 08:50:32;;;;;;;3.33;1.02;;;13.50;42.00;;;;;;7401273;19;20374;-73
2023/12/23 08:52:58;;;;;;;3.92;1.10;;;12.80;47.10;;;;;;7401860;19;19979;-74
2023/12/23 08:55:24;;;;;;;4.70;1.20;;;12.60;48.30;;;;;;7404770;19;19931;-72
2023/12/23 08:57:50;;;;;;;4.47;1.17;;;12.60;48.10;;;;;;7404134;19;20260;-72
2023/12/23 09:00:16;;;;;;;3.65;0.98;;;12.50;49.10;;;;;;7402229;19;19915;-74
2023/12/23 09:02:41;;;;;;;3.88;1.02;;;12.30;49.30;;;;;;7401581;19;20464;-72
2023/12/23 09:05:07;;;;;;;5.30;1.20;;;12.20;50.60;;;;;;7401219;19;19922;-72
2023/12/23 09:07:33;;;;;;;5.65;1.10;;;12.20;51.60;;;;;;7400792;19;19915;-73
2023/12/23 09:09:59;;;;;;;4.00;1.02;;;12.10;51.80;;;;;;7403083;19;20397;-72
2023/12/23 09:12:25;;;;;;;4.50;1.02;;;12.40;50.60;;;;;;7398360;19;20236;-72
2023/12/23 09:14:52;;;;;;;3.75;1.20;;;12.40;50.00;;;;;;7402968;19;19933;-73
2023/12/23 09:17:18;;;;;;;6.72;1.67;;;12.70;49.90;;;;;;7398742;19;19943;-72
2023/12/23 09:19:45;;;;;;;3.30;1.15;;;12.80;48.70;;;;;;7404381;19;19921;-72
2023/12/23 09:22:11;;;;;;;5.22;1.02;;;13.00;47.70;;;;;;7400055;19;20346;-73
2023/12/23 09:24:37;;;;;;;3.72;1.10;;;13.20;45.10;;;;;;7403531;19;20548;-73
2023/12/23 09:27:03;;;;;;;4.55;1.70;;;13.80;44.00;;;;;;7401887;19;19922;-74
2023/12/23 09:29:29;;;;;;;4.25;1.08;;;14.40;39.80;;;;;;7402565;19;19922;-74
2023/12/23 09:31:56;;;;;;;5.25;1.40;;;14.20;36.50;;;;;;7403125;19;20012;-73
2023/12/23 09:34:21;;;;;;;4.93;0.98;;;14.40;38.60;;;;;;7398719;19;20364;-73
2023/12/23 09:36:47;;;;;;;3.22;1.02;;;15.00;35.50;;;;;;7381544;19;19947;-74
2023/12/23 09:39:13;;;;;;;4.22;1.20;;;14.70;34.50;;;;;;7378402;19;19914;-73
2023/12/23 09:41:43;;;;;;;3.72;1.20;;;14.40;36.30;;;;;;7402284;19;20079;-73
2023/12/23 09:44:09;;;;;;;4.50;1.20;;;14.00;37.80;;;;;;7399202;19;19978;-74
2023/12/23 09:46:38;;;;;;;4.95;1.50;;;14.20;39.00;;;;;;7400856;19;19958;-76
2023/12/23 09:49:04;;;;;;;3.67;1.30;;;14.30;36.60;;;;;;7396314;19;19963;-74
2023/12/23 09:51:32;;;;;;;5.10;1.13;;;14.30;37.10;;;;;;7401920;19;19951;-73
2023/12/23 09:54:01;;;;;;;5.10;1.63;;;14.20;37.00;;;;;;7397059;19;19954;-73
2023/12/23 09:56:30;;;;;;;4.03;1.05;;;13.90;39.70;;;;;;7398803;19;19947;-73
2023/12/23 09:58:57;;;;;;;4.05;1.10;;;13.90;39.20;;;;;;7386830;19;19918;-72
2023/12/23 10:01:23;;;;;;;6.22;1.30;;;14.70;37.20;;;;;;7394248;19;19938;-73
2023/12/23 10:03:50;;;;;;;3.92;1.05;;;15.20;34.00;;;;;;7399310;19;19918;-73
2023/12/23 10:06:19;;;;;;;4.40;1.23;;;15.30;33.00;;;;;;7395720;19;19982;-73
2023/12/23 10:08:48;;;;;;;5.63;2.08;;;15.50;30.80;;;;;;7368556;19;19951;-73
2023/12/23 10:11:14;;;;;;;4.97;1.40;;;15.30;31.30;;;;;;7391917;19;19914;-72
2023/12/23 10:13:41;;;;;;;5.75;1.42;;;15.40;32.70;;;;;;7375224;19;20349;-73
2023/12/23 10:16:08;;;;;;;;;;;16.20;30.60;;;;;;7393288;19;19922;-73
2023/12/23 10:18:34;;;;;;;4.80;1.20;;;16.50;28.10;;;;;;7398170;19;19974;-73
2023/12/23 10:21:00;;;;;;;4.88;1.20;;;16.40;26.70;;;;;;7402165;19;19955;-72
2023/12/23 10:23:28;;;;;;;6.55;1.77;;;16.20;26.70;;;;;;7395179;19;19926;-73
2023/12/23 10:25:54;;;;;;;4.65;1.52;;;16.10;27.10;;;;;;7396923;19;19918;-73
2023/12/23 10:28:23;;;;;;;6.75;1.50;;;16.80;26.50;;;;;;7394851;19;20041;-72
2023/12/23 10:30:51;;;;;;;6.82;1.55;;;17.00;25.80;;;;;;7396289;19;19926;-72
2023/12/23 10:33:17;;;;;;;5.22;1.40;;;17.40;23.90;;;;;;7399244;19;19931;-74
2023/12/23 10:35:51;;;;;;;4.13;1.48;;;17.60;23.50;;;;;;7403451;19;20002;-73
2023/12/23 10:38:20;;;;;;;5.90;1.50;;;18.10;21.60;;;;;;7398882;19;19953;-73
2023/12/23 10:41:25;;;;;;;4.93;1.67;;;17.60;22.50;;;;;;7390530;19;19922;-74
2023/12/23 10:43:54;;;;;;;9.95;1.73;;;17.80;21.40;;;;;;7400116;19;19922;-80
2023/12/23 10:46:21;;;;;;;5.63;1.35;;;18.30;23.20;;;;;;7397152;19;19915;-73
2023/12/23 10:48:47;;;;;;;6.90;2.22;;;18.10;19.80;;;;;;7396444;19;19922;-73
2023/12/23 10:51:13;;;;;;;;;;;18.40;19.40;;;;;;7403061;19;20302;-74
2023/12/23 10:53:40;;;;;;;4.07;1.33;;;17.90;19.70;;;;;;7400899;19;19922;-73
2023/12/23 10:56:06;;;;;;;;;;;17.30;21.40;;;;;;7400008;19;19922;-73
2023/12/23 10:58:33;;;;;;;3.90;1.35;;;18.10;19.40;;;;;;7399093;19;19926;-72
2023/12/23 11:01:00;;;;;;;4.43;1.15;;;17.90;19.40;;;;;;7401968;19;19929;-74
2023/12/23 11:03:29;;;;;;;5.60;1.35;;;17.60;19.30;;;;;;7398735;19;20751;-75
2023/12/23 11:05:56;;;;;;;4.53;1.30;;;18.10;18.50;;;;;;7396148;19;19939;-74
2023/12/23 11:08:24;;;;;;;6.10;1.48;;;19.30;16.70;;;;;;7390029;19;19925;-74
2023/12/23 11:10:51;;;;;;;5.03;1.88;;;19.00;16.20;;;;;;7390508;19;19964;-73
2023/12/23 11:13:19;;;;;;;3.63;1.10;;;20.00;15.30;;;;;;7392183;19;19952;-74
2023/12/23 11:15:47;;;;;;;4.85;1.60;;;20.60;13.50;;;;;;7398017;19;19906;-74
2023/12/23 11:18:13;;;;;;;4.47;1.40;;;21.10;11.20;;;;;;7370237;19;19954;-72
2023/12/23 11:20:43;;;;;;;5.63;1.45;;;20.80;11.60;;;;;;7395584;19;19935;-73
2023/12/23 11:23:29;;;;;;;3.67;1.42;;;21.60;10.60;;;;;;7395662;19;19934;-73
2023/12/23 11:25:56;;;;;;;4.20;1.77;;;22.10;9.50;;;;;;7397463;19;19915;-74
2023/12/23 11:28:28;;;;;;;4.63;2.38;;;22.60;7.80;;;;;;7372388;19;21786;-73
2023/12/23 11:30:54;;;;;;;;;;;22.80;6.50;;;;;;7402563;19;19922;-74
2023/12/23 11:33:21;;;;;;;4.53;1.60;;;22.70;6.20;;;;;;7399397;19;19934;-74
2023/12/23 11:35:47;;;;;;;4.60;1.40;;;22.20;6.50;;;;;;7397291;19;19914;-73
2023/12/23 11:38:14;;;;;;;5.30;2.17;;;22.30;5.90;;;;;;7376157;19;19922;-73
2023/12/23 11:40:40;;;;;;;5.00;1.70;;;22.40;5.60;;;;;;7382177;19;19979;-73
2023/12/23 11:43:06;;;;;;;5.03;1.98;;;23.00;5.90;;;;;;7402732;19;19918;-73
2023/12/23 11:45:31;;;;;;;4.63;1.92;;;23.50;3.90;;;;;;7403790;19;20246;-73
2023/12/23 11:47:57;;;;;;;6.75;1.83;;;22.90;3.90;;;;;;7405255;19;20647;-74
2023/12/23 11:50:23;;;;;;;6.90;1.77;;;23.30;3.50;;;;;;7400697;19;19934;-74
2023/12/23 11:52:51;;;;;;;8.27;1.75;;;22.40;3.70;;;;;;7405038;19;19994;-74
2023/12/23 11:55:17;;;;;;;4.70;1.58;;;22.00;4.20;;;;;;7404679;19;19922;-73
2023/12/23 11:57:43;;;;;;;4.57;1.35;;;22.00;4.80;;;;;;7405737;19;19930;-74
2023/12/23 12:00:11;;;;;;;8.82;1.90;;;22.40;4.50;;;;;;7401390;19;19961;-74
2023/12/23 12:02:36;;;;;;;3.83;1.63;;;21.60;4.10;;;;;;7405898;19;19918;-73
2023/12/23 12:05:03;;;;;;;4.80;1.75;;;22.70;3.80;;;;;;7401747;19;19921;-73
2023/12/23 12:07:29;;;;;;;6.18;1.73;;;23.30;3.00;;;;;;7405000;19;19919;-74
2023/12/23 12:09:55;;;;;;;4.80;2.03;;;24.10;2.20;;;;;;7400921;19;19930;-73
2023/12/23 12:12:21;;;;;;;5.22;2.38;;;23.00;1.20;;;;;;7401793;19;20638;-72
2023/12/23 12:14:47;;;;;;;5.72;1.83;;;20.80;4.50;;;;;;7398767;19;19918;-74
2023/12/23 12:17:13;;;;;;;6.32;2.20;;;20.70;5.50;;;;;;7401111;19;19914;-74
2023/12/23 12:19:39;;;;;;;4.88;2.28;;;20.70;5.20;;;;;;7404924;19;19918;-73
2023/12/23 12:22:05;;;;;;;6.25;1.67;;;21.40;6.00;;;;;;7403917;19;20346;-72
2023/12/23 12:24:32;;;;;;;6.18;2.03;;;19.70;6.10;;;;;;7402544;19;20353;-74
2023/12/23 12:26:58;;;;;;;6.00;1.92;;;19.90;7.60;;;;;;7404003;19;20394;-74
2023/12/23 12:29:24;;;;;;;4.60;1.52;;;19.70;7.80;;;;;;7399929;19;19926;-74
2023/12/23 12:31:51;;;;;;;6.75;2.10;;;19.80;7.80;;;;;;7406594;19;20334;-73
2023/12/23 12:34:16;;;;;;;;;;;19.30;7.40;;;;;;7401284;19;19926;-73
2023/12/23 12:36:43;;;;;;;5.43;1.63;;;19.90;8.10;;;;;;7406546;19;19914;-73
2023/12/23 12:39:10;;;;;;;5.97;1.80;;;21.80;5.80;;;;;;7400443;19;19941;-73
2023/12/23 12:41:39;;;;;;;5.68;1.75;;;20.50;5.20;;;;;;7403952;19;19923;-74
2023/12/23 12:44:07;;;;;;;4.35;2.15;;;21.00;5.00;;;;;;7395112;19;19944;-73
2023/12/23 12:46:35;;;;;;;5.93;2.22;;;20.90;5.60;;;;;;7405115;19;20007;-72